sensor_id;sensor_type;location;lat;lon;timestamp;P1;durP1;ratioP1;P2;durP2;ratioP2
76292;SDS011;67256;51.154;4.164;2023-07-13T00:00:24;10.57;;;2.33;;
76292;SDS011;67256;51.154;4.164;2023-07-13T00:02:50;11.32;;;2.13;;
76292;SDS011;67256;51.154;4.164;2023-07-13T00:05:19;10.95;;;2.35;;
76292;SDS011;67256;51.154;4.164;2023-07-13T00:07:48;6.88;;;2.00;;
76292;SDS011;67256;51.154;4.164;2023-07-13T00:10:15;11.55;;;2.40;;
76292;SDS011;67256;51.154;4.164;2023-07-13T00:12:42;8.32;;;1.98;;
76292;SDS011;67256;51.154;4.164;2023-07-13T00:15:14;7.65;;;2.20;;
76292;SDS011;67256;51.154;4.164;2023-07-13T00:17:48;9.20;;;2.30;;
76292;SDS011;67256;51.154;4.164;2023-07-13T00:20:18;9.70;;;2.13;;
76292;SDS011;67256;51.154;4.164;2023-07-13T00:22:47;10.38;;;2.35;;
76292;SDS011;67256;51.154;4.164;2023-07-13T00:25:13;11.98;;;2.10;;
76292;SDS011;67256;51.154;4.164;2023-07-13T00:27:39;8.65;;;2.10;;
76292;SDS011;67256;51.154;4.164;2023-07-13T00:30:06;8.95;;;2.10;;
76292;SDS011;67256;51.154;4.164;2023-07-13T00:32:34;8.05;;;2.05;;
76292;SDS011;67256;51.154;4.164;2023-07-13T00:35:00;6.75;;;2.05;;
76292;SDS011;67256;51.154;4.164;2023-07-13T00:37:26;12.82;;;3.13;;
76292;SDS011;67256;51.154;4.164;2023-07-13T00:39:52;10.95;;;2.03;;
76292;SDS011;67256;51.154;4.164;2023-07-13T00:42:17;8.07;;;1.80;;
76292;SDS011;67256;51.154;4.164;2023-07-13T00:47:33;8.02;;;2.17;;
76292;SDS011;67256;51.154;4.164;2023-07-13T00:49:59;10.55;;;2.53;;
76292;SDS011;67256;51.154;4.164;2023-07-13T00:52:25;11.95;;;2.45;;
76292;SDS011;67256;51.154;4.164;2023-07-13T00:54:53;14.35;;;2.35;;
76292;SDS011;67256;51.154;4.164;2023-07-13T00:57:19;8.40;;;2.60;;
76292;SDS011;67256;51.154;4.164;2023-07-13T00:59:49;12.30;;;2.72;;
76292;SDS011;67256;51.154;4.164;2023-07-13T01:02:19;9.13;;;2.20;;
76292;SDS011;67256;51.154;4.164;2023-07-13T01:04:46;10.60;;;2.15;;
76292;SDS011;67256;51.154;4.164;2023-07-13T01:07:13;12.32;;;2.53;;
76292;SDS011;67256;51.154;4.164;2023-07-13T01:09:40;12.55;;;2.78;;
76292;SDS011;67256;51.154;4.164;2023-07-13T01:12:06;14.60;;;3.28;;
76292;SDS011;67256;51.154;4.164;2023-07-13T01:14:32;10.32;;;3.33;;
76292;SDS011;67256;51.154;4.164;2023-07-13T01:16:58;16.42;;;2.97;;
76292;SDS011;67256;51.154;4.164;2023-07-13T01:22:10;10.55;;;2.65;;
76292;SDS011;67256;51.154;4.164;2023-07-13T01:24:38;14.77;;;4.35;;
76292;SDS011;67256;51.154;4.164;2023-07-13T01:27:06;9.98;;;2.67;;
76292;SDS011;67256;51.154;4.164;2023-07-13T01:29:34;15.00;;;3.25;;
76292;SDS011;67256;51.154;4.164;2023-07-13T01:32:07;11.00;;;3.00;;
76292;SDS011;67256;51.154;4.164;2023-07-13T01:34:35;16.50;;;2.95;;
76292;SDS011;67256;51.154;4.164;2023-07-13T01:37:02;11.43;;;3.22;;
76292;SDS011;67256;51.154;4.164;2023-07-13T01:39:29;12.32;;;2.75;;
76292;SDS011;67256;51.154;4.164;2023-07-13T01:41:56;12.50;;;3.08;;
76292;SDS011;67256;51.154;4.164;2023-07-13T01:44:22;11.50;;;3.33;;
76292;SDS011;67256;51.154;4.164;2023-07-13T01:46:48;11.70;;;3.08;;
76292;SDS011;67256;51.154;4.164;2023-07-13T01:49:13;12.57;;;3.33;;
76292;SDS011;67256;51.154;4.164;2023-07-13T01:51:40;11.98;;;3.92;;
76292;SDS011;67256;51.154;4.164;2023-07-13T01:54:05;8.07;;;2.40;;
76292;SDS011;67256;51.154;4.164;2023-07-13T01:56:31;18.35;;;3.35;;
76292;SDS011;67256;51.154;4.164;2023-07-13T01:58:57;19.48;;;2.97;;
76292;SDS011;67256;51.154;4.164;2023-07-13T02:01:22;14.00;;;2.60;;
76292;SDS011;67256;51.154;4.164;2023-07-13T02:03:48;10.32;;;2.70;;
76292;SDS011;67256;51.154;4.164;2023-07-13T02:06:14;11.98;;;3.22;;
76292;SDS011;67256;51.154;4.164;2023-07-13T02:08:40;16.05;;;3.30;;
76292;SDS011;67256;51.154;4.164;2023-07-13T02:11:07;11.38;;;2.72;;
76292;SDS011;67256;51.154;4.164;2023-07-13T02:13:32;13.80;;;3.05;;
76292;SDS011;67256;51.154;4.164;2023-07-13T02:15:58;9.23;;;2.83;;
76292;SDS011;67256;51.154;4.164;2023-07-13T02:18:24;17.25;;;2.85;;
76292;SDS011;67256;51.154;4.164;2023-07-13T02:20:50;13.32;;;2.53;;
76292;SDS011;67256;51.154;4.164;2023-07-13T02:23:15;14.52;;;2.97;;
76292;SDS011;67256;51.154;4.164;2023-07-13T02:25:41;12.90;;;3.15;;
76292;SDS011;67256;51.154;4.164;2023-07-13T02:28:07;15.45;;;3.35;;
76292;SDS011;67256;51.154;4.164;2023-07-13T02:30:33;9.95;;;3.10;;
76292;SDS011;67256;51.154;4.164;2023-07-13T02:33:00;13.20;;;3.20;;
76292;SDS011;67256;51.154;4.164;2023-07-13T02:35:26;15.30;;;3.67;;
76292;SDS011;67256;51.154;4.164;2023-07-13T02:37:51;18.17;;;3.53;;
76292;SDS011;67256;51.154;4.164;2023-07-13T02:40:17;10.63;;;2.50;;
76292;SDS011;67256;51.154;4.164;2023-07-13T02:42:43;11.27;;;2.83;;
76292;SDS011;67256;51.154;4.164;2023-07-13T02:45:09;16.98;;;3.88;;
76292;SDS011;67256;51.154;4.164;2023-07-13T02:47:35;13.73;;;3.40;;
76292;SDS011;67256;51.154;4.164;2023-07-13T02:50:01;10.73;;;2.75;;
76292;SDS011;67256;51.154;4.164;2023-07-13T02:52:27;18.90;;;3.22;;
76292;SDS011;67256;51.154;4.164;2023-07-13T02:54:53;14.02;;;3.28;;
76292;SDS011;67256;51.154;4.164;2023-07-13T02:57:19;13.30;;;3.05;;
76292;SDS011;67256;51.154;4.164;2023-07-13T02:59:45;15.07;;;4.50;;
76292;SDS011;67256;51.154;4.164;2023-07-13T03:02:10;20.02;;;3.30;;
76292;SDS011;67256;51.154;4.164;2023-07-13T03:04:36;13.45;;;2.83;;
76292;SDS011;67256;51.154;4.164;2023-07-13T03:07:03;13.38;;;3.42;;
76292;SDS011;67256;51.154;4.164;2023-07-13T03:09:29;13.35;;;2.95;;
76292;SDS011;67256;51.154;4.164;2023-07-13T03:11:56;10.88;;;3.22;;
76292;SDS011;67256;51.154;4.164;2023-07-13T03:14:22;13.23;;;3.58;;
76292;SDS011;67256;51.154;4.164;2023-07-13T03:16:48;18.90;;;3.97;;
76292;SDS011;67256;51.154;4.164;2023-07-13T03:19:13;13.50;;;3.38;;
76292;SDS011;67256;51.154;4.164;2023-07-13T03:21:39;18.75;;;3.92;;
76292;SDS011;67256;51.154;4.164;2023-07-13T03:24:05;17.73;;;3.53;;
76292;SDS011;67256;51.154;4.164;2023-07-13T03:26:31;13.30;;;3.75;;
76292;SDS011;67256;51.154;4.164;2023-07-13T03:28:57;14.02;;;3.22;;
76292;SDS011;67256;51.154;4.164;2023-07-13T03:31:24;11.38;;;3.20;;
76292;SDS011;67256;51.154;4.164;2023-07-13T03:33:53;11.60;;;3.58;;
76292;SDS011;67256;51.154;4.164;2023-07-13T03:36:20;13.82;;;3.35;;
76292;SDS011;67256;51.154;4.164;2023-07-13T03:38:49;14.65;;;3.60;;
76292;SDS011;67256;51.154;4.164;2023-07-13T03:41:16;14.38;;;3.47;;
76292;SDS011;67256;51.154;4.164;2023-07-13T03:43:42;13.85;;;3.75;;
76292;SDS011;67256;51.154;4.164;2023-07-13T03:46:08;16.08;;;3.10;;
76292;SDS011;67256;51.154;4.164;2023-07-13T03:48:35;10.10;;;2.90;;
76292;SDS011;67256;51.154;4.164;2023-07-13T03:51:00;15.90;;;3.30;;
76292;SDS011;67256;51.154;4.164;2023-07-13T03:53:27;12.15;;;3.03;;
76292;SDS011;67256;51.154;4.164;2023-07-13T03:55:52;12.85;;;3.00;;
76292;SDS011;67256;51.154;4.164;2023-07-13T04:00:51;11.27;;;3.55;;
76292;SDS011;67256;51.154;4.164;2023-07-13T04:03:17;18.83;;;4.18;;
76292;SDS011;67256;51.154;4.164;2023-07-13T04:05:42;11.85;;;3.45;;
76292;SDS011;67256;51.154;4.164;2023-07-13T04:08:08;15.35;;;3.30;;
76292;SDS011;67256;51.154;4.164;2023-07-13T04:10:34;17.42;;;3.72;;
76292;SDS011;67256;51.154;4.164;2023-07-13T04:12:59;17.60;;;4.22;;
76292;SDS011;67256;51.154;4.164;2023-07-13T04:15:25;13.60;;;3.72;;
76292;SDS011;67256;51.154;4.164;2023-07-13T04:17:54;17.42;;;3.85;;
76292;SDS011;67256;51.154;4.164;2023-07-13T04:20:20;14.63;;;3.28;;
76292;SDS011;67256;51.154;4.164;2023-07-13T04:22:46;18.63;;;3.50;;
76292;SDS011;67256;51.154;4.164;2023-07-13T04:25:12;19.58;;;4.43;;
76292;SDS011;67256;51.154;4.164;2023-07-13T04:27:38;12.52;;;4.03;;
76292;SDS011;67256;51.154;4.164;2023-07-13T04:30:05;11.65;;;3.60;;
76292;SDS011;67256;51.154;4.164;2023-07-13T04:32:31;17.67;;;3.40;;
76292;SDS011;67256;51.154;4.164;2023-07-13T04:34:57;17.95;;;3.63;;
76292;SDS011;67256;51.154;4.164;2023-07-13T04:37:24;16.52;;;3.60;;
76292;SDS011;67256;51.154;4.164;2023-07-13T04:39:51;12.35;;;3.63;;
76292;SDS011;67256;51.154;4.164;2023-07-13T04:42:16;13.98;;;3.58;;
76292;SDS011;67256;51.154;4.164;2023-07-13T04:44:46;14.18;;;3.42;;
76292;SDS011;67256;51.154;4.164;2023-07-13T04:47:16;20.98;;;4.55;;
76292;SDS011;67256;51.154;4.164;2023-07-13T04:49:43;16.75;;;3.45;;
76292;SDS011;67256;51.154;4.164;2023-07-13T04:52:09;12.70;;;4.03;;
76292;SDS011;67256;51.154;4.164;2023-07-13T04:54:35;14.05;;;3.83;;
76292;SDS011;67256;51.154;4.164;2023-07-13T04:57:02;17.75;;;4.00;;
76292;SDS011;67256;51.154;4.164;2023-07-13T04:59:32;13.10;;;3.72;;
76292;SDS011;67256;51.154;4.164;2023-07-13T05:01:58;13.52;;;3.10;;
76292;SDS011;67256;51.154;4.164;2023-07-13T05:04:23;13.40;;;3.40;;
76292;SDS011;67256;51.154;4.164;2023-07-13T05:06:49;18.30;;;3.60;;
76292;SDS011;67256;51.154;4.164;2023-07-13T05:09:15;14.60;;;3.70;;
76292;SDS011;67256;51.154;4.164;2023-07-13T05:11:42;12.88;;;3.30;;
76292;SDS011;67256;51.154;4.164;2023-07-13T05:14:08;16.45;;;3.95;;
76292;SDS011;67256;51.154;4.164;2023-07-13T05:16:34;11.15;;;3.10;;
76292;SDS011;67256;51.154;4.164;2023-07-13T05:19:00;17.63;;;4.05;;
76292;SDS011;67256;51.154;4.164;2023-07-13T05:21:26;19.00;;;3.90;;
76292;SDS011;67256;51.154;4.164;2023-07-13T05:23:52;13.68;;;3.38;;
76292;SDS011;67256;51.154;4.164;2023-07-13T05:26:18;11.90;;;3.45;;
76292;SDS011;67256;51.154;4.164;2023-07-13T05:28:45;13.50;;;3.80;;
76292;SDS011;67256;51.154;4.164;2023-07-13T05:31:11;13.20;;;3.08;;
76292;SDS011;67256;51.154;4.164;2023-07-13T05:33:37;19.15;;;3.53;;
76292;SDS011;67256;51.154;4.164;2023-07-13T05:36:03;17.45;;;3.97;;
76292;SDS011;67256;51.154;4.164;2023-07-13T05:38:29;13.23;;;3.13;;
76292;SDS011;67256;51.154;4.164;2023-07-13T05:40:56;15.30;;;3.40;;
76292;SDS011;67256;51.154;4.164;2023-07-13T05:43:22;18.13;;;4.45;;
76292;SDS011;67256;51.154;4.164;2023-07-13T05:45:48;19.60;;;3.08;;
76292;SDS011;67256;51.154;4.164;2023-07-13T05:48:16;12.35;;;3.78;;
76292;SDS011;67256;51.154;4.164;2023-07-13T05:50:41;11.38;;;3.58;;
76292;SDS011;67256;51.154;4.164;2023-07-13T05:53:08;19.17;;;3.72;;
76292;SDS011;67256;51.154;4.164;2023-07-13T05:55:33;13.80;;;3.03;;
76292;SDS011;67256;51.154;4.164;2023-07-13T05:58:00;17.50;;;3.28;;
76292;SDS011;67256;51.154;4.164;2023-07-13T06:00:26;13.13;;;3.65;;
76292;SDS011;67256;51.154;4.164;2023-07-13T06:02:52;16.40;;;4.57;;
76292;SDS011;67256;51.154;4.164;2023-07-13T06:05:17;13.48;;;3.17;;
76292;SDS011;67256;51.154;4.164;2023-07-13T06:07:43;14.45;;;3.80;;
76292;SDS011;67256;51.154;4.164;2023-07-13T06:10:09;13.15;;;3.72;;
76292;SDS011;67256;51.154;4.164;2023-07-13T06:12:35;14.32;;;3.05;;
76292;SDS011;67256;51.154;4.164;2023-07-13T06:15:00;13.40;;;3.10;;
76292;SDS011;67256;51.154;4.164;2023-07-13T06:17:26;14.00;;;3.40;;
76292;SDS011;67256;51.154;4.164;2023-07-13T06:19:52;10.13;;;4.05;;
76292;SDS011;67256;51.154;4.164;2023-07-13T06:22:18;12.02;;;3.40;;
76292;SDS011;67256;51.154;4.164;2023-07-13T06:24:44;16.40;;;3.20;;
76292;SDS011;67256;51.154;4.164;2023-07-13T06:27:09;18.75;;;3.30;;
76292;SDS011;67256;51.154;4.164;2023-07-13T06:29:35;17.85;;;3.33;;
76292;SDS011;67256;51.154;4.164;2023-07-13T06:32:01;14.52;;;3.90;;
76292;SDS011;67256;51.154;4.164;2023-07-13T06:34:27;16.35;;;3.13;;
76292;SDS011;67256;51.154;4.164;2023-07-13T06:36:53;14.88;;;2.97;;
76292;SDS011;67256;51.154;4.164;2023-07-13T06:39:18;14.05;;;3.30;;
76292;SDS011;67256;51.154;4.164;2023-07-13T06:41:44;11.52;;;3.00;;
76292;SDS011;67256;51.154;4.164;2023-07-13T06:44:10;13.60;;;3.70;;
76292;SDS011;67256;51.154;4.164;2023-07-13T06:46:35;13.95;;;3.55;;
76292;SDS011;67256;51.154;4.164;2023-07-13T06:49:01;11.00;;;3.33;;
76292;SDS011;67256;51.154;4.164;2023-07-13T06:51:27;19.40;;;4.05;;
76292;SDS011;67256;51.154;4.164;2023-07-13T06:53:52;18.95;;;3.63;;
76292;SDS011;67256;51.154;4.164;2023-07-13T06:56:19;15.00;;;3.50;;
76292;SDS011;67256;51.154;4.164;2023-07-13T06:58:45;19.23;;;3.97;;
76292;SDS011;67256;51.154;4.164;2023-07-13T07:01:11;20.00;;;4.80;;
76292;SDS011;67256;51.154;4.164;2023-07-13T07:03:37;15.50;;;5.47;;
76292;SDS011;67256;51.154;4.164;2023-07-13T07:06:06;15.15;;;3.58;;
76292;SDS011;67256;51.154;4.164;2023-07-13T07:08:40;13.73;;;4.00;;
76292;SDS011;67256;51.154;4.164;2023-07-13T07:13:38;15.13;;;3.25;;
76292;SDS011;67256;51.154;4.164;2023-07-13T07:16:04;14.65;;;3.60;;
76292;SDS011;67256;51.154;4.164;2023-07-13T07:18:29;15.65;;;3.78;;
76292;SDS011;67256;51.154;4.164;2023-07-13T07:20:55;12.95;;;3.35;;
76292;SDS011;67256;51.154;4.164;2023-07-13T07:23:21;11.40;;;3.33;;
76292;SDS011;67256;51.154;4.164;2023-07-13T07:25:47;17.77;;;4.22;;
76292;SDS011;67256;51.154;4.164;2023-07-13T07:28:15;14.25;;;3.30;;
76292;SDS011;67256;51.154;4.164;2023-07-13T07:30:45;11.75;;;3.03;;
76292;SDS011;67256;51.154;4.164;2023-07-13T07:33:11;13.90;;;3.60;;
76292;SDS011;67256;51.154;4.164;2023-07-13T07:35:37;18.00;;;3.78;;
76292;SDS011;67256;51.154;4.164;2023-07-13T07:38:02;15.98;;;3.83;;
76292;SDS011;67256;51.154;4.164;2023-07-13T07:40:28;17.92;;;3.80;;
76292;SDS011;67256;51.154;4.164;2023-07-13T07:42:54;16.77;;;3.50;;
76292;SDS011;67256;51.154;4.164;2023-07-13T07:45:20;16.67;;;3.85;;
76292;SDS011;67256;51.154;4.164;2023-07-13T07:47:46;17.90;;;3.97;;
76292;SDS011;67256;51.154;4.164;2023-07-13T07:50:12;23.63;;;4.90;;
76292;SDS011;67256;51.154;4.164;2023-07-13T07:52:38;24.75;;;4.13;;
76292;SDS011;67256;51.154;4.164;2023-07-13T07:55:04;16.88;;;3.83;;
76292;SDS011;67256;51.154;4.164;2023-07-13T07:57:31;14.10;;;4.05;;
76292;SDS011;67256;51.154;4.164;2023-07-13T07:59:57;14.63;;;5.40;;
76292;SDS011;67256;51.154;4.164;2023-07-13T08:02:24;14.73;;;3.83;;
76292;SDS011;67256;51.154;4.164;2023-07-13T08:04:50;16.75;;;4.13;;
76292;SDS011;67256;51.154;4.164;2023-07-13T08:07:16;11.20;;;3.45;;
76292;SDS011;67256;51.154;4.164;2023-07-13T08:09:42;11.25;;;3.28;;
76292;SDS011;67256;51.154;4.164;2023-07-13T08:12:08;14.38;;;3.97;;
76292;SDS011;67256;51.154;4.164;2023-07-13T08:14:33;8.95;;;2.88;;
76292;SDS011;67256;51.154;4.164;2023-07-13T08:16:59;14.85;;;3.33;;
76292;SDS011;67256;51.154;4.164;2023-07-13T08:19:25;15.18;;;3.97;;
76292;SDS011;67256;51.154;4.164;2023-07-13T08:21:51;14.75;;;3.55;;
76292;SDS011;67256;51.154;4.164;2023-07-13T08:24:17;13.88;;;4.20;;
76292;SDS011;67256;51.154;4.164;2023-07-13T08:26:43;12.73;;;3.42;;
76292;SDS011;67256;51.154;4.164;2023-07-13T08:29:11;12.45;;;3.22;;
76292;SDS011;67256;51.154;4.164;2023-07-13T08:31:36;15.25;;;3.25;;
76292;SDS011;67256;51.154;4.164;2023-07-13T08:34:03;9.50;;;3.22;;
76292;SDS011;67256;51.154;4.164;2023-07-13T08:36:29;14.80;;;3.10;;
76292;SDS011;67256;51.154;4.164;2023-07-13T08:38:54;15.60;;;4.20;;
76292;SDS011;67256;51.154;4.164;2023-07-13T08:41:20;11.27;;;3.33;;
76292;SDS011;67256;51.154;4.164;2023-07-13T08:43:49;16.95;;;3.50;;
76292;SDS011;67256;51.154;4.164;2023-07-13T08:46:35;9.65;;;2.75;;
76292;SDS011;67256;51.154;4.164;2023-07-13T08:49:05;9.07;;;3.00;;
76292;SDS011;67256;51.154;4.164;2023-07-13T08:51:41;12.07;;;2.90;;
76292;SDS011;67256;51.154;4.164;2023-07-13T08:54:30;11.55;;;2.63;;
76292;SDS011;67256;51.154;4.164;2023-07-13T08:57:14;10.07;;;2.50;;
76292;SDS011;67256;51.154;4.164;2023-07-13T08:59:43;10.65;;;3.22;;
76292;SDS011;67256;51.154;4.164;2023-07-13T09:05:10;9.38;;;2.38;;
76292;SDS011;67256;51.154;4.164;2023-07-13T09:15:34;12.25;;;2.33;;
76292;SDS011;67256;51.154;4.164;2023-07-13T09:18:11;11.30;;;3.00;;
76292;SDS011;67256;51.154;4.164;2023-07-13T09:23:34;6.30;;;2.00;;
76292;SDS011;67256;51.154;4.164;2023-07-13T09:26:05;9.32;;;2.53;;
76292;SDS011;67256;51.154;4.164;2023-07-13T09:28:47;8.00;;;2.78;;
76292;SDS011;67256;51.154;4.164;2023-07-13T09:31:32;10.15;;;2.30;;
76292;SDS011;67256;51.154;4.164;2023-07-13T09:34:02;12.70;;;3.25;;
76292;SDS011;67256;51.154;4.164;2023-07-13T09:36:30;8.50;;;2.40;;
76292;SDS011;67256;51.154;4.164;2023-07-13T09:44:17;9.20;;;2.60;;
76292;SDS011;67256;51.154;4.164;2023-07-13T09:46:53;10.23;;;2.60;;
76292;SDS011;67256;51.154;4.164;2023-07-13T09:49:24;10.82;;;2.40;;
76292;SDS011;67256;51.154;4.164;2023-07-13T09:52:14;4.75;;;2.10;;
76292;SDS011;67256;51.154;4.164;2023-07-13T09:54:44;12.85;;;2.50;;
76292;SDS011;67256;51.154;4.164;2023-07-13T09:57:17;8.02;;;2.38;;
76292;SDS011;67256;51.154;4.164;2023-07-13T09:59:48;7.10;;;1.77;;
76292;SDS011;67256;51.154;4.164;2023-07-13T10:02:29;8.00;;;2.22;;
76292;SDS011;67256;51.154;4.164;2023-07-13T10:05:06;8.05;;;2.17;;
76292;SDS011;67256;51.154;4.164;2023-07-13T10:07:40;7.95;;;1.73;;
76292;SDS011;67256;51.154;4.164;2023-07-13T10:10:19;6.78;;;1.60;;
76292;SDS011;67256;51.154;4.164;2023-07-13T10:12:46;11.77;;;2.20;;
76292;SDS011;67256;51.154;4.164;2023-07-13T10:15:14;5.50;;;1.95;;
76292;SDS011;67256;51.154;4.164;2023-07-13T10:17:46;8.98;;;2.20;;
76292;SDS011;67256;51.154;4.164;2023-07-13T10:20:12;5.05;;;1.88;;
76292;SDS011;67256;51.154;4.164;2023-07-13T10:22:43;7.35;;;2.20;;
76292;SDS011;67256;51.154;4.164;2023-07-13T10:25:17;7.18;;;1.63;;
76292;SDS011;67256;51.154;4.164;2023-07-13T10:27:44;6.20;;;2.00;;
76292;SDS011;67256;51.154;4.164;2023-07-13T10:30:19;7.85;;;1.90;;
76292;SDS011;67256;51.154;4.164;2023-07-13T10:32:53;9.02;;;1.80;;
76292;SDS011;67256;51.154;4.164;2023-07-13T10:35:19;7.88;;;1.92;;
76292;SDS011;67256;51.154;4.164;2023-07-13T10:37:49;7.10;;;2.08;;
76292;SDS011;67256;51.154;4.164;2023-07-13T10:40:39;4.78;;;1.60;;
76292;SDS011;67256;51.154;4.164;2023-07-13T10:43:14;6.88;;;1.90;;
76292;SDS011;67256;51.154;4.164;2023-07-13T10:45:45;9.43;;;2.65;;
76292;SDS011;67256;51.154;4.164;2023-07-13T10:48:15;7.68;;;1.55;;
76292;SDS011;67256;51.154;4.164;2023-07-13T10:50:42;12.45;;;1.80;;
76292;SDS011;67256;51.154;4.164;2023-07-13T10:53:32;4.63;;;1.27;;
76292;SDS011;67256;51.154;4.164;2023-07-13T10:55:59;7.13;;;1.48;;
76292;SDS011;67256;51.154;4.164;2023-07-13T10:58:38;4.78;;;1.65;;
76292;SDS011;67256;51.154;4.164;2023-07-13T11:03:34;6.95;;;1.50;;
76292;SDS011;67256;51.154;4.164;2023-07-13T11:14:00;8.85;;;3.20;;
76292;SDS011;67256;51.154;4.164;2023-07-13T11:21:28;9.57;;;4.63;;
76292;SDS011;67256;51.154;4.164;2023-07-13T11:31:56;13.02;;;7.78;;
76292;SDS011;67256;51.154;4.164;2023-07-13T11:34:28;13.20;;;9.20;;
76292;SDS011;67256;51.154;4.164;2023-07-13T11:36:57;15.80;;;8.40;;
76292;SDS011;67256;51.154;4.164;2023-07-13T11:39:27;16.60;;;8.10;;
76292;SDS011;67256;51.154;4.164;2023-07-13T11:42:00;14.85;;;7.38;;
76292;SDS011;67256;51.154;4.164;2023-07-13T11:44:28;13.40;;;5.93;;
76292;SDS011;67256;51.154;4.164;2023-07-13T11:47:00;12.70;;;5.68;;
76292;SDS011;67256;51.154;4.164;2023-07-13T11:49:38;10.55;;;4.22;;
76292;SDS011;67256;51.154;4.164;2023-07-13T11:52:15;11.55;;;4.63;;
76292;SDS011;67256;51.154;4.164;2023-07-13T11:54:48;8.70;;;3.53;;
76292;SDS011;67256;51.154;4.164;2023-07-13T11:57:33;6.45;;;2.70;;
76292;SDS011;67256;51.154;4.164;2023-07-13T12:00:09;5.65;;;2.53;;
76292;SDS011;67256;51.154;4.164;2023-07-13T12:02:43;4.95;;;2.85;;
76292;SDS011;67256;51.154;4.164;2023-07-13T12:05:13;5.35;;;2.00;;
76292;SDS011;67256;51.154;4.164;2023-07-13T12:07:50;8.07;;;2.47;;
76292;SDS011;67256;51.154;4.164;2023-07-13T12:12:53;5.00;;;2.10;;
76292;SDS011;67256;51.154;4.164;2023-07-13T12:15:19;6.85;;;2.22;;
76292;SDS011;67256;51.154;4.164;2023-07-13T12:17:47;6.38;;;1.92;;
76292;SDS011;67256;51.154;4.164;2023-07-13T12:20:21;7.70;;;2.70;;
76292;SDS011;67256;51.154;4.164;2023-07-13T12:22:49;3.72;;;2.15;;
76292;SDS011;67256;51.154;4.164;2023-07-13T12:25:16;4.75;;;1.73;;
76292;SDS011;67256;51.154;4.164;2023-07-13T12:27:42;5.57;;;2.08;;
76292;SDS011;67256;51.154;4.164;2023-07-13T12:33:06;6.00;;;2.20;;
76292;SDS011;67256;51.154;4.164;2023-07-13T12:35:38;7.38;;;2.08;;
76292;SDS011;67256;51.154;4.164;2023-07-13T12:38:08;8.90;;;2.40;;
76292;SDS011;67256;51.154;4.164;2023-07-13T12:40:36;7.60;;;2.88;;
76292;SDS011;67256;51.154;4.164;2023-07-13T12:43:02;7.00;;;2.72;;
76292;SDS011;67256;51.154;4.164;2023-07-13T12:45:32;8.55;;;3.08;;
76292;SDS011;67256;51.154;4.164;2023-07-13T12:47:59;6.97;;;2.58;;
76292;SDS011;67256;51.154;4.164;2023-07-13T12:50:34;6.50;;;2.85;;
76292;SDS011;67256;51.154;4.164;2023-07-13T12:53:04;8.40;;;2.42;;
76292;SDS011;67256;51.154;4.164;2023-07-13T12:55:46;8.18;;;2.50;;
76292;SDS011;67256;51.154;4.164;2023-07-13T13:00:53;6.28;;;3.03;;
76292;SDS011;67256;51.154;4.164;2023-07-13T13:05:56;6.82;;;3.05;;
76292;SDS011;67256;51.154;4.164;2023-07-13T13:08:32;7.20;;;3.05;;
76292;SDS011;67256;51.154;4.164;2023-07-13T13:11:00;5.03;;;2.38;;
76292;SDS011;67256;51.154;4.164;2023-07-13T13:13:27;5.60;;;2.53;;
76292;SDS011;67256;51.154;4.164;2023-07-13T13:15:53;8.82;;;2.72;;
76292;SDS011;67256;51.154;4.164;2023-07-13T13:18:19;7.90;;;2.80;;
76292;SDS011;67256;51.154;4.164;2023-07-13T13:20:47;6.10;;;2.78;;
76292;SDS011;67256;51.154;4.164;2023-07-13T13:23:15;7.35;;;2.92;;
76292;SDS011;67256;51.154;4.164;2023-07-13T13:28:14;7.45;;;2.35;;
76292;SDS011;67256;51.154;4.164;2023-07-13T13:30:41;6.88;;;2.30;;
76292;SDS011;67256;51.154;4.164;2023-07-13T13:33:11;8.07;;;2.72;;
76292;SDS011;67256;51.154;4.164;2023-07-13T13:35:40;7.78;;;2.92;;
76292;SDS011;67256;51.154;4.164;2023-07-13T13:38:13;7.25;;;2.30;;
76292;SDS011;67256;51.154;4.164;2023-07-13T13:40:42;8.48;;;2.78;;
76292;SDS011;67256;51.154;4.164;2023-07-13T13:43:20;8.20;;;2.70;;
76292;SDS011;67256;51.154;4.164;2023-07-13T13:45:53;8.15;;;2.83;;
76292;SDS011;67256;51.154;4.164;2023-07-13T13:48:21;7.73;;;2.53;;
76292;SDS011;67256;51.154;4.164;2023-07-13T13:50:56;9.25;;;2.22;;
76292;SDS011;67256;51.154;4.164;2023-07-13T13:53:23;4.30;;;2.03;;
76292;SDS011;67256;51.154;4.164;2023-07-13T13:55:49;6.00;;;2.33;;
76292;SDS011;67256;51.154;4.164;2023-07-13T13:58:15;7.68;;;2.20;;
76292;SDS011;67256;51.154;4.164;2023-07-13T14:00:41;9.48;;;2.58;;
76292;SDS011;67256;51.154;4.164;2023-07-13T14:03:20;5.05;;;2.20;;
76292;SDS011;67256;51.154;4.164;2023-07-13T14:05:47;5.57;;;2.35;;
76292;SDS011;67256;51.154;4.164;2023-07-13T14:08:14;7.25;;;2.38;;
76292;SDS011;67256;51.154;4.164;2023-07-13T14:10:45;6.70;;;1.77;;
76292;SDS011;67256;51.154;4.164;2023-07-13T14:13:20;5.47;;;1.80;;
76292;SDS011;67256;51.154;4.164;2023-07-13T14:15:51;6.45;;;2.17;;
76292;SDS011;67256;51.154;4.164;2023-07-13T14:18:17;4.60;;;1.63;;
76292;SDS011;67256;51.154;4.164;2023-07-13T14:20:47;4.35;;;1.73;;
76292;SDS011;67256;51.154;4.164;2023-07-13T14:23:16;6.28;;;1.77;;
76292;SDS011;67256;51.154;4.164;2023-07-13T14:25:43;5.28;;;2.30;;
76292;SDS011;67256;51.154;4.164;2023-07-13T14:28:16;5.65;;;2.00;;
76292;SDS011;67256;51.154;4.164;2023-07-13T14:30:44;6.95;;;2.15;;
76292;SDS011;67256;51.154;4.164;2023-07-13T14:33:12;5.53;;;2.25;;
76292;SDS011;67256;51.154;4.164;2023-07-13T14:35:38;7.00;;;2.13;;
76292;SDS011;67256;51.154;4.164;2023-07-13T14:38:04;7.40;;;1.70;;
76292;SDS011;67256;51.154;4.164;2023-07-13T14:40:31;7.47;;;1.90;;
76292;SDS011;67256;51.154;4.164;2023-07-13T14:42:57;5.75;;;1.90;;
76292;SDS011;67256;51.154;4.164;2023-07-13T14:45:23;10.05;;;2.10;;
76292;SDS011;67256;51.154;4.164;2023-07-13T14:47:50;10.35;;;2.55;;
76292;SDS011;67256;51.154;4.164;2023-07-13T14:50:17;6.00;;;1.92;;
76292;SDS011;67256;51.154;4.164;2023-07-13T14:52:45;6.03;;;2.13;;
76292;SDS011;67256;51.154;4.164;2023-07-13T14:55:13;5.10;;;2.45;;
76292;SDS011;67256;51.154;4.164;2023-07-13T14:57:41;4.88;;;1.90;;
76292;SDS011;67256;51.154;4.164;2023-07-13T15:00:17;4.88;;;2.05;;
76292;SDS011;67256;51.154;4.164;2023-07-13T15:02:44;4.10;;;1.65;;
76292;SDS011;67256;51.154;4.164;2023-07-13T15:05:14;5.32;;;1.98;;
76292;SDS011;67256;51.154;4.164;2023-07-13T15:07:46;7.15;;;2.28;;
76292;SDS011;67256;51.154;4.164;2023-07-13T15:10:14;6.60;;;2.10;;
76292;SDS011;67256;51.154;4.164;2023-07-13T15:12:41;5.15;;;1.80;;
76292;SDS011;67256;51.154;4.164;2023-07-13T15:15:07;7.38;;;1.95;;
76292;SDS011;67256;51.154;4.164;2023-07-13T15:20:06;9.30;;;1.75;;
76292;SDS011;67256;51.154;4.164;2023-07-13T15:22:44;7.88;;;2.20;;
76292;SDS011;67256;51.154;4.164;2023-07-13T15:25:15;7.30;;;1.90;;
76292;SDS011;67256;51.154;4.164;2023-07-13T15:27:43;4.65;;;2.25;;
76292;SDS011;67256;51.154;4.164;2023-07-13T15:30:09;7.80;;;2.08;;
76292;SDS011;67256;51.154;4.164;2023-07-13T15:32:35;4.28;;;2.00;;
76292;SDS011;67256;51.154;4.164;2023-07-13T15:35:01;5.05;;;1.60;;
76292;SDS011;67256;51.154;4.164;2023-07-13T15:37:26;11.13;;;2.08;;
76292;SDS011;67256;51.154;4.164;2023-07-13T15:39:53;6.40;;;2.30;;
76292;SDS011;67256;51.154;4.164;2023-07-13T15:42:19;7.30;;;1.95;;
76292;SDS011;67256;51.154;4.164;2023-07-13T15:44:46;5.65;;;2.05;;
76292;SDS011;67256;51.154;4.164;2023-07-13T15:47:13;7.20;;;1.85;;
76292;SDS011;67256;51.154;4.164;2023-07-13T15:49:39;6.40;;;1.70;;
76292;SDS011;67256;51.154;4.164;2023-07-13T15:52:16;4.80;;;2.05;;
76292;SDS011;67256;51.154;4.164;2023-07-13T15:54:44;8.18;;;1.92;;